Flight Track Log - Related Links

Times and Time Zones

All times are in EST time to prevent confusion due to time zone crossing. See the N693EE flight status page for this flight to view local times or setup timezone preferences in your user account.

Time Position Orientation Groundspeed Altitude Reporting Facility
EST Latitude Longitude Course Direction KTS MPH feet Rate Location/Type
Mon 11:00:36 AM 38.2008 -122.2931 133° Southeast 113 130 800  Level Oakland Center
Mon 11:01:37 AM 38.1914 -122.3311 252° West 113 130 2,300 1,475 Climbing Oakland Center
Mon 11:02:38 AM 38.1778 -122.3742 248° West 124 143 3,800 1,230 Climbing Oakland Center
Mon 11:03:39 AM 38.1300 -122.4000 203° Southwest 185 213 4,800 1,512 Climbing Oakland Center
Mon 11:04:41 AM 38.1033 -122.4361 227° Southwest 149 171 6,900 1,756 Climbing Oakland Center
Mon 11:05:00 AM 38.0114 -121.7559 133° Southeast  Level Estimated
Mon 11:05:42 AM 38.0653 -122.4472 193° South 165 190 8,400  Level Oakland Center
Mon 11:06:43 AM 38.0175 -122.4269 162° South 180 207 10,100 1,623 Climbing Oakland Center
Mon 11:07:44 AM 37.9678 -122.4083 164° South 184 212 11,700 1,475 Climbing Oakland Center
Mon 11:08:45 AM 37.9172 -122.3903 164° South 186 214 13,100 1,415 Climbing Oakland Center
Mon 11:09:47 AM 37.8661 -122.3706 163° South 189 217 14,600 1,366 Climbing Oakland Center
Mon 11:10:48 AM 37.8186 -122.3361 150° Southeast 198 228 15,900 1,426 Climbing Oakland Center
Mon 11:11:49 AM 37.7750 -122.2844 137° Southeast 212 244 17,500 1,328 Climbing Oakland Center
Mon 11:12:50 AM 37.7203 -122.2231 138° Southeast 217 250 18,600 1,131 Climbing Oakland Center
Mon 11:13:51 AM 37.6728 -122.1703 139° Southeast 224 258 19,800 1,268 Climbing Oakland Center
Mon 11:14:53 AM 37.6222 -122.1147 139° Southeast 237 273 21,200 1,268 Climbing Oakland Center
Mon 11:15:54 AM 37.5747 -122.0606 138° Southeast 232 267 22,400 1,082 Climbing Oakland Center
Mon 11:16:55 AM 37.5253 -122.0044 138° Southeast 236 272 23,400 1,033 Climbing Oakland Center
Mon 11:17:56 AM 37.4728 -121.9478 139° Southeast 246 283 24,500 1,033 Climbing Oakland Center
Mon 11:18:57 AM 37.4222 -121.8908 138° Southeast 245 282 25,500 878 Climbing Oakland Center
Mon 11:19:59 AM 37.3700 -121.8333 139° Southeast 248 285 26,300 683 Climbing Oakland Center
Mon 11:21:00 AM 37.3150 -121.7703 138° Southeast 250 288 26,900 344 Climbing Oakland Center
Mon 11:22:01 AM 37.2564 -121.7056 139° Southeast 272 313 27,000 49 Climbing Oakland Center
Mon 11:23:02 AM 37.1933 -121.6364 139° Southeast 293 337 27,000  Level Oakland Center
Mon 11:24:03 AM 37.1289 -121.5656 139° Southeast 304 350 27,000  Level Oakland Center
Mon 11:25:04 AM 37.0603 -121.4781 134° Southeast 309 356 27,000  Level Oakland Center
Mon 11:26:06 AM 37.0069 -121.3900 127° Southeast 315 362 27,000  Level Oakland Center
Mon 11:27:07 AM 36.9497 -121.3069 131° Southeast 316 364 27,000  Level Oakland Center
Mon 11:28:08 AM 36.8931 -121.2236 130° Southeast 316 364 27,000  Level Oakland Center
Mon 11:29:09 AM 36.8322 -121.1350 131° Southeast 316 364 27,000  Level Oakland Center
Mon 11:30:10 AM 36.7778 -121.0583 132° Southeast 317 365 27,000  Level Oakland Center
Mon 11:31:11 AM 36.7208 -120.9747 130° Southeast 316 364 27,000  Level Oakland Center
Mon 11:32:13 AM 36.6639 -120.8928 131° Southeast 315 362 27,000  Level Oakland Center
Mon 11:33:14 AM 36.6072 -120.8086 130° Southeast 316 364 27,000  Level Oakland Center
Mon 11:34:15 AM 36.5392 -120.7097 131° Southeast 315 362 27,000  Level Oakland Center
Mon 11:35:16 AM 36.4811 -120.6289 132° Southeast 314 361 27,000  Level Oakland Center
Mon 11:36:17 AM 36.4250 -120.5464 130° Southeast 313 360 27,000  Level Oakland Center
Mon 11:37:19 AM 36.3681 -120.4661 131° Southeast 311 358 27,000  Level Oakland Center
Mon 11:38:20 AM 36.3119 -120.3844 130° Southeast 310 357 27,000  Level Oakland Center
Mon 11:39:21 AM 36.2558 -120.3042 131° Southeast 309 356 27,000  Level Oakland Center
Mon 11:40:22 AM 36.1989 -120.2231 131° Southeast 310 357 27,000  Level Oakland Center
Mon 11:41:24 AM 36.1428 -120.1422 131° Southeast 310 357 27,000  Level Oakland Center
Mon 11:42:25 AM 36.0856 -120.0622 131° Southeast 310 357 27,000  Level Oakland Center
Mon 11:43:26 AM 36.0297 -119.9831 131° Southeast 307 353 27,000  Level Oakland Center
Mon 11:44:27 AM 35.9742 -119.9036 131° Southeast 306 352 27,000  Level Oakland Center
Mon 11:45:29 AM 35.9175 -119.8256 132° Southeast 305 351 27,000  Level Oakland Center
Mon 11:46:09 AM 35.8717 -119.7606 131° Southeast 306 352 27,000  Level Los Angeles Center
Mon 11:47:11 AM 35.8158 -119.6822 131° Southeast 305 351 27,000  Level Los Angeles Center
Mon 11:48:13 AM 35.7586 -119.6031 132° Southeast 307 353 27,000  Level Los Angeles Center
Mon 11:49:15 AM 35.7025 -119.5242 131° Southeast 306 352 27,000  Level Los Angeles Center
Mon 11:50:17 AM 35.6467 -119.4469 132° Southeast 303 349 27,000  Level Los Angeles Center
Mon 11:51:19 AM 35.5797 -119.3531 131° Southeast 303 349 27,000  Level Los Angeles Center
Mon 11:52:21 AM 35.5228 -119.2747 132° Southeast 306 352 27,000  Level Los Angeles Center
Mon 11:53:23 AM 35.4667 -119.1978 132° Southeast 303 349 27,000  Level Los Angeles Center
Mon 11:54:25 AM 35.4103 -119.1197 132° Southeast 305 351 27,000  Level Los Angeles Center
Mon 11:55:28 AM 35.3550 -119.0439 132° Southeast 302 348 27,000  Level Los Angeles Center
Mon 11:56:30 AM 35.3000 -118.9667 131° Southeast 301 346 27,000  Level Los Angeles Center
Mon 11:57:32 AM 35.2339 -118.8756 132° Southeast 299 344 27,000  Level Los Angeles Center
Mon 11:58:34 AM 35.1761 -118.7994 133° Southeast 303 349 27,000  Level Los Angeles Center
Mon 11:59:36 AM 35.1203 -118.7228 132° Southeast 302 348 27,000  Level Los Angeles Center
Mon 12:00:38 PM 35.0636 -118.6467 132° Southeast 302 348 27,000  Level Los Angeles Center
Mon 12:01:40 PM 35.0083 -118.5711 132° Southeast 300 345 27,000  Level Los Angeles Center
Mon 12:02:42 PM 34.9517 -118.4956 132° Southeast 302 348 27,000  Level Los Angeles Center
Mon 12:03:45 PM 34.8900 -118.4131 132° Southeast 298 343 27,000  Level Los Angeles Center
Mon 12:04:47 PM 34.8350 -118.3392 132° Southeast 297 342 27,000  Level Los Angeles Center
Mon 12:05:49 PM 34.7797 -118.2650 132° Southeast 296 341 27,000  Level Los Angeles Center
Mon 12:06:51 PM 34.7128 -118.1758 132° Southeast 299 344 27,000  Level Los Angeles Center
Mon 12:07:53 PM 34.6575 -118.1014 132° Southeast 299 344 27,000  Level Los Angeles Center
Mon 12:08:55 PM 34.6144 -118.0153 121° Southeast 313 360 27,000  Level Los Angeles Center
Mon 12:09:57 PM 34.5867 -117.9203 110° East 306 352 27,000  Level Los Angeles Center
Mon 12:10:59 PM 34.5589 -117.8258 110° East 301 346 27,000  Level Los Angeles Center
Mon 12:12:02 PM 34.5258 -117.7139 110° East 298 343 27,000  Level Los Angeles Center
Mon 12:13:04 PM 34.4975 -117.6217 110° East 297 342 27,000  Level Los Angeles Center
Mon 12:14:06 PM 34.4686 -117.5269 110° East 299 344 27,000  Level Los Angeles Center
Mon 12:15:08 PM 34.4397 -117.4325 110° East 300 345 27,000  Level Los Angeles Center
Mon 12:16:10 PM 34.4117 -117.3378 110° East 300 345 27,000  Level Los Angeles Center
Mon 12:17:12 PM 34.3786 -117.2286 110° East 301 346 27,000  Level Los Angeles Center
Mon 12:18:14 PM 34.3483 -117.1297 110° East 302 348 27,000  Level Los Angeles Center
Mon 12:19:16 PM 34.3192 -117.0353 110° East 302 348 27,000  Level Los Angeles Center
Mon 12:20:19 PM 34.2897 -116.9392 110° East 305 351 27,000  Level Los Angeles Center
Mon 12:21:21 PM 34.2606 -116.8442 110° East 303 349 27,000  Level Los Angeles Center
Mon 12:22:23 PM 34.2306 -116.7478 111° Southeast 306 352 27,000  Level Los Angeles Center
Mon 12:23:25 PM 34.1947 -116.6311 110° East 309 356 27,000  Level Los Angeles Center
Mon 12:24:27 PM 34.1639 -116.5342 111° Southeast 310 357 27,000  Level Los Angeles Center
Mon 12:25:29 PM 34.1342 -116.4350 110° East 314 361 27,000  Level Los Angeles Center
Mon 12:26:31 PM 34.0997 -116.3258 111° Southeast 305 351 27,000 -48 Level Los Angeles Center
Mon 12:27:34 PM 34.0694 -116.2278 110° East 310 357 26,900  Descending Los Angeles Center
Mon 12:28:36 PM 34.0386 -116.1314 111° Southeast 308 354 27,000 48 Climbing Los Angeles Center
Mon 12:29:38 PM 34.0081 -116.0347 111° Southeast 308 354 27,000  Level Los Angeles Center
Mon 12:30:40 PM 33.9778 -115.9367 110° East 311 358 27,000  Level Los Angeles Center
Mon 12:31:42 PM 33.9442 -115.8369 112° Southeast 320 368 27,000  Level Los Angeles Center
Mon 12:32:44 PM 33.9078 -115.7192 110° East 314 361 27,000  Level Los Angeles Center
Mon 12:33:46 PM 33.8753 -115.6194 111° Southeast 318 366 27,000  Level Los Angeles Center
Mon 12:34:48 PM 33.8431 -115.5228 112° Southeast 313 360 27,000  Level Los Angeles Center
Mon 12:35:51 PM 33.8117 -115.4239 111° Southeast 315 362 27,000  Level Los Angeles Center
Mon 12:36:53 PM 33.7789 -115.3244 112° Southeast 318 366 27,000  Level Los Angeles Center
Mon 12:37:55 PM 33.7481 -115.2267 111° Southeast 314 361 27,000  Level Los Angeles Center
Mon 12:38:57 PM 33.7092 -115.1097 112° Southeast 314 361 27,000 -242 Level Los Angeles Center
Mon 12:39:59 PM 33.6764 -115.0111 112° Southeast 317 365 26,500 -919 Descending Los Angeles Center
Mon 12:41:01 PM 33.6419 -114.9053 111° Southeast 333 383 25,100 -1,258 Descending Los Angeles Center
Mon 12:42:03 PM 33.6064 -114.7964 111° Southeast 347 399 23,900 -968 Descending Los Angeles Center
Mon 12:43:05 PM 33.5894 -114.6872 101° East 340 391 23,100 -871 Descending Los Angeles Center
Mon 12:44:07 PM 33.5792 -114.5775 96° East 332 382 22,100 -960 Descending Los Angeles Center
Mon 12:45:10 PM 33.5669 -114.4461 96° East 331 381 21,100 -960 Descending Los Angeles Center
Mon 12:46:12 PM 33.5561 -114.3389 97° East 327 376 20,100 -871 Descending Los Angeles Center
Mon 12:47:14 PM 33.5478 -114.2381 96° East 324 373 19,300 -871 Descending Los Angeles Center
Mon 12:48:16 PM 33.5378 -114.1314 96° East 322 371 18,300 -828 Descending Los Angeles Center
Mon 12:49:39 PM 33.5253 -113.9803 96° East 319 367 17,300 -538 Descending Albuquerque Center
Mon 12:50:41 PM 33.5147 -113.8786 97° East 311 358 17,000 -339 Descending Albuquerque Center
Mon 12:51:43 PM 33.4722 -113.7942 121° Southeast 298 343 16,600 -726 Descending Albuquerque Center
Mon 12:52:45 PM 33.4242 -113.6883 119° Southeast 299 344 15,500 -1,016 Descending Albuquerque Center
Mon 12:53:47 PM 33.3828 -113.6017 120° Southeast 300 345 14,500 -919 Descending Albuquerque Center
Mon 12:54:49 PM 33.3442 -113.5161 118° Southeast 297 342 13,600 -871 Descending Albuquerque Center
Mon 12:55:51 PM 33.3042 -113.4297 119° Southeast 296 341 12,700 -871 Descending Albuquerque Center
Mon 12:56:53 PM 33.2686 -113.3422 116° Southeast 293 337 11,800 -774 Descending Albuquerque Center
Mon 12:57:55 PM 33.2703 -113.2456 89° East 292 336 11,100 -387 Descending Albuquerque Center
Mon 12:58:57 PM 33.2725 -113.1347 89° East 285 328 11,000 -48 Descending Albuquerque Center
Mon 12:59:59 PM 33.2750 -113.0469 88° East 273 314 11,000  Level Albuquerque Center
Mon 01:01:01 PM 33.2781 -112.9586 88° East 268 308 11,000  Level Albuquerque Center
Mon 01:02:03 PM 33.2794 -112.8714 89° East 265 305 11,000  Level Albuquerque Center
Mon 01:03:05 PM 33.2811 -112.7831 89° East 266 306 11,000  Level Albuquerque Center
Mon 01:04:07 PM 33.2836 -112.6953 88° East 265 305 11,000 -435 Level Albuquerque Center
Mon 01:05:09 PM 33.2856 -112.5892 89° East 272 313 10,100 -480 Descending Albuquerque Center
Mon 01:06:12 PM 33.2661 -112.5039 105° East 271 312 10,000 -48 Descending Albuquerque Center
Mon 01:07:14 PM 33.2397 -112.4222 111° Southeast 266 306 10,000 -242 Level Albuquerque Center
Mon 01:08:16 PM 33.2122 -112.3406 112° Southeast 267 307 9,500 -581 Descending Albuquerque Center
Mon 01:09:18 PM 33.2050 -112.2519 96° East 278 320 8,800 -919 Descending Albuquerque Center
Mon 01:10:20 PM 33.2256 -112.1472 77° East 272 313 7,600 -1,210 Descending Albuquerque Center
Mon 01:11:22 PM 33.2439 -112.0589 76° East 275 316 6,300 -1,306 Descending Albuquerque Center
Mon 01:12:24 PM 33.2628 -111.9719 75° East 273 314 4,900 -1,065 Descending Albuquerque Center
Mon 01:13:26 PM 33.2817 -111.8861 75° East 269 310 4,100 -339 Descending Albuquerque Center
Mon 01:14:28 PM 33.3236 -111.8431 41° Northeast 206 237 4,200 -387 Climbing Albuquerque Center
Mon 01:15:30 PM 33.3786 -111.8125 25° Northeast 184 212 3,300 -726 Descending Albuquerque Center
Mon 01:16:32 PM 33.4214 -111.7867 27° Northeast 172 198 2,700 -677 Descending Albuquerque Center
Mon 01:17:34 PM 33.4450 -111.7519 51° Northeast 136 157 1,900 -581 Descending Albuquerque Center
Mon 01:18:36 PM 33.4639 -111.7211 54° Northeast 115 132 1,500 -387 Descending Albuquerque Center
Mon 01:20:00 PM 33.4608 -111.7283 165° South  Level Estimated

Login

Don't have an account? Register now (free) for customized features, flight alerts, and more!